Hominy, Oklahoma
Current Conditions -  °F | °C
As of 11:55 AM on Thursday 30 Oct 2014 (Local Time) from KOWP Reporting Station
Clear Clear  
Wind Chill: 68°   Ceiling: Unl
Heat Index: 68°   Visibility: 10mi
Dew Point: 45°   Wind: 10mph
Humidity: 44%   Direction: 260°W
Pressure: 30.12"   Gusts: NA
Location:  36.41°N, 96.4°W
Report Text: KOWP 301655Z AUTO 26009KT 10SM CLR 20/07 A3012 RMK AO2 T01990074
Loading
Personal Weather Stations






























Interactive Weather Map
Tropical Storm Tracking
New forecast layout! Learn more

10-Day Weather Forecast

Advertisements
Track Severe Weather on mobile